createdAt,value
2018-01-22T00:00:37.666Z,30.95
2018-01-22T00:01:46.491Z,30.95
2018-01-22T00:02:55.316Z,31.04
2018-01-22T00:04:04.141Z,31.42
2018-01-22T00:05:12.967Z,31.71
2018-01-22T00:06:21.795Z,31.71
2018-01-22T00:07:30.618Z,31.71
2018-01-22T00:08:39.445Z,31.23
2018-01-22T00:09:48.272Z,31.33
2018-01-22T00:10:57.347Z,31.23
2018-01-22T00:12:06.174Z,31.9
2018-01-22T00:13:15.005Z,31.04
2018-01-22T00:14:24.107Z,31.52
2018-01-22T00:15:32.927Z,31.99
2018-01-22T00:16:41.856Z,32.46
2018-01-22T00:17:50.682Z,32.75
2018-01-22T00:18:59.509Z,32.93
2018-01-22T00:20:08.335Z,31.99
2018-01-22T00:21:17.163Z,32.84
2018-01-22T00:22:26.138Z,32.93
2018-01-22T00:23:34.966Z,32.18
2018-01-22T00:24:44.071Z,31.8
2018-01-22T00:25:52.896Z,31.42
2018-01-22T00:27:01.994Z,31.8
2018-01-22T00:28:10.920Z,31.71
2018-01-22T00:29:19.748Z,30.76
2018-01-22T00:30:28.571Z,31.9
2018-01-22T00:31:37.398Z,31.99
2018-01-22T00:32:46.509Z,31.71
2018-01-22T00:33:55.334Z,31.52
2018-01-22T00:35:04.161Z,31.33
2018-01-22T00:36:13.261Z,31.04
2018-01-22T00:37:22.089Z,31.04
2018-01-22T00:38:30.915Z,30.85
2018-01-22T00:39:39.840Z,31.14
2018-01-22T00:40:48.666Z,31.23
2018-01-22T00:41:57.492Z,30.57
2018-01-22T00:43:06.365Z,31.33
2018-01-22T00:44:15.159Z,30.95
2018-01-22T00:45:23.967Z,30.95
2018-01-22T00:46:32.795Z,31.23
2018-01-22T00:47:41.626Z,31.9
2018-01-22T00:48:50.725Z,32.09
2018-01-22T00:49:59.551Z,31.42
2018-01-22T00:51:08.483Z,31.23
2018-01-22T00:52:17.304Z,31.52
2018-01-22T00:53:26.131Z,31.9
2018-01-22T00:54:34.957Z,31.71
2018-01-22T00:55:43.782Z,31.99
2018-01-22T00:56:52.984Z,32.46
2018-01-22T00:58:01.809Z,32.18
2018-01-22T00:59:10.634Z,31.61
2018-01-22T01:00:19.478Z,31.33
2018-01-22T01:01:28.286Z,31.23
2018-01-22T01:02:37.263Z,31.61
2018-01-22T01:03:46.087Z,31.61
2018-01-22T01:04:54.912Z,30.57
2018-01-22T01:06:03.839Z,31.14
2018-01-22T01:07:12.663Z,30.95
2018-01-22T01:08:21.638Z,31.23
2018-01-22T01:09:30.463Z,31.61
2018-01-22T01:10:39.292Z,31.14
2018-01-22T01:11:48.118Z,31.61
2018-01-22T01:12:56.945Z,31.23
2018-01-22T01:14:05.821Z,30.76
2018-01-22T01:15:14.647Z,30.85
2018-01-22T01:16:23.472Z,30.66
2018-01-22T01:17:32.299Z,30.47
2018-01-22T01:18:41.121Z,30.47
2018-01-22T01:19:49.948Z,30.57
2018-01-22T01:20:58.775Z,30.57
2018-01-22T01:22:07.599Z,30.76
2018-01-22T01:23:16.425Z,31.52
2018-01-22T01:24:25.253Z,31.52
2018-01-22T01:25:34.078Z,31.71
2018-01-22T01:26:42.905Z,31.9
2018-01-22T01:27:51.732Z,32.18
2018-01-22T01:29:00.559Z,31.61
2018-01-22T01:30:09.384Z,32.09
2018-01-22T01:31:18.510Z,31.61
2018-01-22T01:32:27.337Z,33.03
2018-01-22T01:33:36.164Z,32.56
2018-01-22T01:34:45.014Z,31.99
2018-01-22T01:35:53.812Z,32.75
2018-01-22T01:37:02.787Z,33.12
2018-01-22T01:38:11.612Z,32.84
2018-01-22T01:39:20.437Z,33.03
2018-01-22T01:40:29.262Z,33.88
2018-01-22T01:41:38.088Z,33.98
2018-01-22T01:42:46.965Z,33.88
2018-01-22T01:43:55.791Z,34.36
2018-01-22T01:45:04.619Z,33.41
2018-01-22T01:46:13.445Z,33.22
2018-01-22T01:47:22.272Z,33.22
2018-01-22T01:48:31.247Z,33.03
2018-01-22T01:49:40.074Z,33.31
2018-01-22T01:50:48.901Z,33.31
2018-01-22T01:51:57.726Z,33.03
2018-01-22T01:53:06.832Z,33.5
2018-01-22T01:54:15.759Z,33.31
2018-01-22T01:55:24.584Z,33.41
2018-01-22T01:56:33.409Z,33.31
2018-01-22T01:57:42.235Z,34.07
2018-01-22T01:58:51.061Z,34.07
2018-01-22T02:00:00.140Z,33.88
2018-01-22T02:01:08.964Z,33.98
2018-01-22T02:02:17.789Z,33.98
2018-01-22T02:03:26.618Z,33.22
2018-01-22T02:04:35.443Z,32.93
2018-01-22T02:05:44.270Z,33.03
2018-01-22T02:06:53.097Z,33.03
2018-01-22T02:08:01.920Z,32.75
2018-01-22T02:09:11.025Z,32.75
2018-01-22T02:10:19.847Z,33.22
2018-01-22T02:11:28.825Z,33.03
2018-01-22T02:12:37.926Z,33.12
2018-01-22T02:13:46.752Z,32.75
2018-01-22T02:14:55.580Z,33.03
2018-01-22T02:16:04.405Z,32.84
2018-01-22T02:17:13.486Z,32.28
2018-01-22T02:18:22.311Z,31.52
2018-01-22T02:19:31.137Z,31.9
2018-01-22T02:20:39.965Z,32.65
2018-01-22T02:21:48.789Z,32.09
2018-01-22T02:22:57.886Z,31.99
2018-01-22T02:24:06.761Z,31.71
2018-01-22T02:25:15.537Z,32.18
2018-01-22T02:26:24.636Z,31.9
2018-01-22T02:27:33.464Z,31.8
2018-01-22T02:28:42.690Z,32.28
2018-01-22T02:29:51.520Z,32.18
2018-01-22T02:31:00.347Z,32.93
2018-01-22T02:32:09.177Z,31.99
2018-01-22T02:33:18.001Z,31.71
2018-01-22T02:34:26.877Z,31.9
2018-01-22T02:35:35.703Z,31.99
2018-01-22T02:36:44.531Z,31.33
2018-01-22T02:37:53.363Z,31.23
2018-01-22T02:39:02.476Z,31.99
2018-01-22T02:40:11.354Z,31.8
2018-01-22T02:41:20.180Z,32.18
2018-01-22T02:42:29.012Z,32.65
2018-01-22T02:43:37.831Z,32.18
2018-01-22T02:44:46.657Z,32.75
2018-01-22T02:45:55.785Z,32.84
2018-01-22T02:47:04.613Z,33.03
2018-01-22T02:48:13.437Z,32.28
2018-01-22T02:49:22.269Z,32.09
2018-01-22T02:50:31.095Z,32.37
2018-01-22T02:51:39.971Z,32.46
2018-01-22T02:52:48.796Z,32.84
2018-01-22T02:53:57.622Z,32.56
2018-01-22T02:55:06.449Z,32.18
2018-01-22T02:56:15.275Z,31.42
2018-01-22T02:57:24.152Z,30.57
2018-01-22T02:58:32.976Z,30.66
2018-01-22T02:59:41.802Z,30.38
2018-01-22T03:00:50.631Z,30.1
2018-01-22T03:01:59.728Z,29.91
2018-01-22T03:03:08.554Z,29.91
2018-01-22T03:04:17.377Z,30.29
2018-01-22T03:05:26.205Z,29.91
2018-01-22T03:06:35.031Z,30.38
2018-01-22T03:07:44.129Z,30.66
2018-01-22T03:08:52.954Z,30.57
2018-01-22T03:10:01.780Z,30.66
2018-01-22T03:11:10.606Z,31.23
2018-01-22T03:12:19.436Z,30.66
2018-01-22T03:13:28.536Z,30.76
2018-01-22T03:14:37.414Z,30.66
2018-01-22T03:15:46.237Z,30.95
2018-01-22T03:16:55.359Z,31.23
2018-01-22T03:18:04.163Z,31.14
2018-01-22T03:19:12.990Z,30.66
2018-01-22T03:20:21.915Z,30.76
2018-01-22T03:21:30.742Z,31.61
2018-01-22T03:22:39.567Z,31.33
2018-01-22T03:23:48.393Z,31.04
2018-01-22T03:24:57.224Z,31.14
2018-01-22T03:26:06.199Z,30.76
2018-01-22T03:27:15.302Z,30.95
2018-01-22T03:28:24.127Z,30.95
2018-01-22T03:29:32.955Z,30.57
2018-01-22T03:30:41.781Z,30.66
2018-01-22T03:31:50.609Z,30.66
2018-01-22T03:32:59.708Z,30.76
2018-01-22T03:34:08.536Z,30.95
2018-01-22T03:35:17.360Z,30.95
2018-01-22T03:36:26.185Z,31.14
2018-01-22T03:37:35.162Z,31.04
2018-01-22T03:38:43.988Z,30.95
2018-01-22T03:39:52.814Z,30.76
2018-01-22T03:41:01.642Z,31.03
2018-01-22T03:42:10.468Z,31.8
2018-01-22T03:43:19.617Z,31.61
2018-01-22T03:44:28.442Z,31.99
2018-01-22T03:45:37.267Z,31.42
2018-01-22T03:46:46.092Z,31.33
2018-01-22T03:47:54.915Z,31.23
2018-01-22T03:49:03.743Z,30.95
2018-01-22T03:50:12.847Z,31.14
2018-01-22T03:51:21.673Z,31.14
2018-01-22T03:52:30.496Z,31.42
2018-01-22T03:53:39.322Z,31.99
2018-01-22T03:54:48.298Z,31.52
2018-01-22T03:55:57.126Z,32.18
2018-01-22T03:57:05.951Z,31.71
2018-01-22T03:58:14.777Z,31.99
2018-01-22T03:59:23.602Z,32.28
2018-01-22T04:00:32.479Z,32.18
2018-01-22T04:01:41.305Z,31.99
2018-01-22T04:02:50.133Z,32.09
2018-01-22T04:03:58.961Z,31.8
2018-01-22T04:05:07.785Z,31.99
2018-01-22T04:06:16.611Z,31.61
2018-01-22T04:07:25.435Z,32.18
2018-01-22T04:08:34.261Z,32.09
2018-01-22T04:09:43.088Z,31.99
2018-01-22T04:10:51.914Z,31.99
2018-01-22T04:12:00.790Z,32.65
2018-01-22T04:13:09.614Z,32.65
2018-01-22T04:14:18.440Z,32.93
2018-01-22T04:15:27.266Z,32.93
2018-01-22T04:16:36.091Z,34.64
2018-01-22T04:17:44.967Z,34.64
2018-01-22T04:18:54.068Z,34.17
2018-01-22T04:20:03.169Z,34.64
2018-01-22T04:21:12.269Z,34.45
2018-01-22T04:22:21.098Z,33.98
2018-01-22T04:23:29.924Z,34.36
2018-01-22T04:24:39.025Z,34.07
2018-01-22T04:25:47.849Z,34.07
2018-01-22T04:26:56.676Z,34.07
2018-01-22T04:28:05.503Z,34.45
2018-01-22T04:29:14.379Z,34.26
2018-01-22T04:30:23.205Z,34.92
2018-01-22T04:31:32.031Z,34.45
2018-01-22T04:32:41.134Z,34.55
2018-01-22T04:33:49.957Z,34.92
2018-01-22T04:34:58.833Z,35.58
2018-01-22T04:36:07.937Z,34.83
2018-01-22T04:37:17.037Z,34.64
2018-01-22T04:38:25.864Z,34.36
2018-01-22T04:39:34.690Z,34.74
2018-01-22T04:40:43.566Z,34.92
2018-01-22T04:41:52.394Z,34.07
2018-01-22T04:43:01.218Z,35.39
2018-01-22T04:44:10.043Z,35.02
2018-01-22T04:45:19.119Z,34.92
2018-01-22T04:46:28.144Z,35.11
2018-01-22T04:47:36.971Z,34.92
2018-01-22T04:48:46.070Z,35.58
2018-01-22T04:49:54.893Z,36.15
2018-01-22T04:51:03.720Z,35.77
2018-01-22T04:52:12.844Z,35.49
2018-01-22T04:53:21.670Z,34.83
2018-01-22T04:54:30.497Z,34.83
2018-01-22T04:55:39.322Z,34.45
2018-01-22T04:56:48.148Z,35.3
2018-01-22T04:57:57.125Z,35.11
2018-01-22T04:59:05.951Z,35.68
2018-01-22T05:00:14.778Z,36.54
2018-01-22T05:01:23.605Z,35.49
2018-01-22T05:02:32.433Z,34.55
2018-01-22T05:03:41.457Z,35.11
2018-01-22T05:04:50.282Z,33.79
2018-01-22T05:05:59.105Z,33.03
2018-01-22T05:07:07.935Z,33.03
2018-01-22T05:08:16.765Z,32.65
2018-01-22T05:09:25.885Z,31.33
2018-01-22T05:10:34.715Z,30.38
2018-01-22T05:11:43.819Z,29.72
2018-01-22T05:12:52.645Z,29.62
2018-01-22T05:14:01.471Z,29.15
2018-01-22T05:15:10.296Z,28.96
2018-01-22T05:16:19.122Z,28.57
2018-01-22T05:17:27.950Z,28.39
2018-01-22T05:18:37.051Z,28.11
2018-01-22T05:19:45.878Z,27.45
2018-01-22T05:20:55.054Z,26.88
2018-01-22T05:22:03.877Z,27.06
2018-01-22T05:23:12.978Z,26.87
2018-01-22T05:24:22.073Z,25.92
2018-01-22T05:25:30.902Z,25.16
2018-01-22T05:26:40.005Z,24.98
2018-01-22T05:27:48.831Z,25.08
2018-01-22T05:28:57.658Z,24.89
2018-01-22T05:30:06.486Z,24.41
2018-01-22T05:31:15.311Z,24.51
2018-01-22T05:32:24.285Z,23.74
2018-01-22T05:33:33.109Z,24.42
2018-01-22T05:34:41.934Z,24.61
2018-01-22T05:35:50.762Z,24.51
2018-01-22T05:36:59.856Z,24.23
2018-01-22T05:38:08.833Z,24.13
2018-01-22T05:39:17.935Z,24.12
2018-01-22T05:40:26.761Z,24.61
2018-01-22T05:41:35.586Z,25.18
2018-01-22T05:42:44.410Z,24.89
2018-01-22T05:43:53.507Z,24.8
2018-01-22T05:45:02.332Z,24.89
2018-01-22T05:46:11.159Z,24.61
2018-01-22T05:47:19.984Z,24.5
2018-01-22T05:48:28.811Z,24.42
2018-01-22T05:49:37.687Z,24.12
2018-01-22T05:50:46.512Z,24.31
2018-01-22T05:51:55.338Z,24.31
2018-01-22T05:53:04.436Z,24.31
2018-01-22T05:54:13.262Z,24.42
2018-01-22T05:55:22.088Z,24.32
2018-01-22T05:56:30.918Z,24.51
2018-01-22T05:57:39.740Z,24.51
2018-01-22T05:58:48.569Z,24.13
2018-01-22T05:59:57.393Z,24.41
2018-01-22T06:01:06.640Z,24.61
2018-01-22T06:02:15.464Z,23.85
2018-01-22T06:03:24.291Z,23.93
2018-01-22T06:04:33.118Z,24.32
2018-01-22T06:05:41.946Z,24.13
2018-01-22T06:06:50.769Z,24.32
2018-01-22T06:07:59.594Z,24.42
2018-01-22T06:09:08.422Z,24.13
2018-01-22T06:10:17.247Z,24.23
2018-01-22T06:11:26.073Z,24.23
2018-01-22T06:12:34.901Z,23.94
2018-01-22T06:13:43.733Z,24.7
2018-01-22T06:14:52.555Z,24.23
2018-01-22T06:16:01.378Z,24.13
2018-01-22T06:17:10.206Z,24.61
2018-01-22T06:18:19.031Z,24.23
2018-01-22T06:19:27.857Z,24.32
2018-01-22T06:20:36.968Z,24.32
2018-01-22T06:21:45.794Z,23.84
2018-01-22T06:22:54.620Z,23.85
2018-01-22T06:24:03.774Z,23.74
2018-01-22T06:25:12.599Z,23.74
2018-01-22T06:26:21.427Z,23.47
2018-01-22T06:27:30.527Z,23.84
2018-01-22T06:28:39.354Z,23.28
2018-01-22T06:29:48.179Z,23.27
2018-01-22T06:30:57.005Z,23.08
2018-01-22T06:32:06.172Z,23.08
2018-01-22T06:33:15.050Z,23.08
2018-01-22T06:34:23.877Z,22.71
2018-01-22T06:35:32.703Z,22.14
2018-01-22T06:36:41.528Z,22.23
2018-01-22T06:37:50.354Z,21.66
2018-01-22T06:38:59.183Z,21.3
2018-01-22T06:40:08.285Z,21.28
2018-01-22T06:41:17.108Z,21.57
2018-01-22T06:42:25.936Z,21.3
2018-01-22T06:43:34.764Z,21.09
2018-01-22T06:44:43.590Z,20.53
2018-01-22T06:45:52.694Z,19.87
2018-01-22T06:47:01.521Z,19.68
2018-01-22T06:48:10.351Z,19.11
2018-01-22T06:49:19.520Z,19.39
2018-01-22T06:50:28.349Z,19.58
2018-01-22T06:51:37.172Z,19.2
2018-01-22T06:52:45.998Z,19.68
2018-01-22T06:53:54.822Z,19.3
2018-01-22T06:55:03.648Z,19.39
2018-01-22T06:56:12.750Z,19.11
2018-01-22T06:57:21.575Z,19.11
2018-01-22T06:58:30.677Z,18.54
2018-01-22T06:59:39.502Z,18.82
2018-01-22T07:00:48.326Z,18.73
2018-01-22T07:01:57.149Z,18.26
2018-01-22T07:03:05.975Z,18.16
2018-01-22T07:04:14.802Z,18.55
2018-01-22T07:05:23.902Z,18.35
2018-01-22T07:06:32.727Z,18.07
2018-01-22T07:07:41.567Z,17.79
2018-01-22T07:08:50.697Z,17.97
2018-01-22T07:09:59.524Z,17.6
2018-01-22T07:11:08.351Z,17.69
2018-01-22T07:12:17.226Z,17.13
2018-01-22T07:13:26.053Z,17.97
2018-01-22T07:14:34.877Z,17.6
2018-01-22T07:15:43.708Z,17.5
2018-01-22T07:16:52.530Z,17.22
2018-01-22T07:18:01.405Z,16.85
2018-01-22T07:19:10.230Z,16.27
2018-01-22T07:20:19.055Z,15.42
2018-01-22T07:21:27.881Z,15.61
2018-01-22T07:22:36.709Z,15.8
2018-01-22T07:23:45.938Z,15.8
2018-01-22T07:24:54.763Z,15.8
2018-01-22T07:26:03.589Z,15.33
2018-01-22T07:27:12.414Z,15.42
2018-01-22T07:28:21.289Z,15.33
2018-01-22T07:29:30.315Z,14.76
2018-01-22T07:30:39.141Z,14.57
2018-01-22T07:31:47.965Z,14.09
2018-01-22T07:32:56.791Z,14.47
2018-01-22T07:34:05.618Z,13.9
2018-01-22T07:35:14.490Z,13.81
2018-01-22T07:36:23.587Z,13.9
2018-01-22T07:37:32.414Z,13.34
2018-01-22T07:38:41.511Z,13.24
2018-01-22T07:39:50.613Z,12.58
2018-01-22T07:40:59.539Z,12.87
2018-01-22T07:42:08.365Z,12.77
2018-01-22T07:43:17.191Z,12.39
2018-01-22T07:44:26.348Z,12.49
2018-01-22T07:45:35.125Z,12.3
2018-01-22T07:46:44.099Z,12.01
2018-01-22T07:47:52.925Z,12.21
2018-01-22T07:49:01.750Z,12.3
2018-01-22T07:50:10.849Z,12.11
2018-01-22T07:51:19.673Z,12.01
2018-01-22T07:52:28.548Z,11.54
2018-01-22T07:53:37.373Z,11.25
2018-01-22T07:54:46.196Z,11.35
2018-01-22T07:55:55.020Z,11.45
2018-01-22T07:57:03.843Z,11.44
2018-01-22T07:58:12.819Z,11.35
2018-01-22T07:59:21.646Z,11.54
2018-01-22T08:00:30.742Z,11.35
2018-01-22T08:01:39.570Z,11.26
2018-01-22T08:02:48.399Z,11.54
2018-01-22T08:03:57.325Z,11.44
2018-01-22T08:05:06.153Z,11.45
2018-01-22T08:06:14.975Z,11.45
2018-01-22T08:07:23.801Z,11.26
2018-01-22T08:08:32.627Z,11.45
2018-01-22T08:09:41.824Z,11.54
2018-01-22T08:10:50.651Z,11.35
2018-01-22T08:11:59.474Z,11.35
2018-01-22T08:13:08.577Z,11.26
2018-01-22T08:14:17.405Z,11.26
2018-01-22T08:15:26.432Z,11.45
2018-01-22T08:16:35.258Z,11.54
2018-01-22T08:17:44.085Z,11.73
2018-01-22T08:18:52.909Z,12.12
2018-01-22T08:20:02.006Z,11.54
2018-01-22T08:21:10.982Z,12.21
2018-01-22T08:22:19.807Z,12.02
2018-01-22T08:23:28.631Z,12.12
2018-01-22T08:24:37.456Z,11.92
2018-01-22T08:25:46.285Z,12.12
2018-01-22T08:26:55.435Z,11.64
2018-01-22T08:28:04.310Z,11.54
2018-01-22T08:29:13.136Z,12.21
2018-01-22T08:30:21.963Z,12.59
2018-01-22T08:31:30.789Z,13.15
2018-01-22T08:32:39.900Z,13.06
2018-01-22T08:33:48.694Z,12.87
2018-01-22T08:34:57.519Z,12.3
2018-01-22T08:36:06.347Z,11.45
2018-01-22T08:37:15.178Z,12.12
2018-01-22T08:38:24.253Z,12.12
2018-01-22T08:39:33.079Z,12.12
2018-01-22T08:40:41.905Z,12.12
2018-01-22T08:41:50.733Z,11.45
2018-01-22T08:42:59.562Z,12.21
2018-01-22T08:44:08.386Z,11.92
2018-01-22T08:45:17.215Z,11.26
2018-01-22T08:46:26.041Z,11.54
2018-01-22T08:47:35.137Z,11.45
2018-01-22T08:48:44.239Z,10.97
2018-01-22T08:49:53.366Z,10.97
2018-01-22T08:51:02.195Z,10.78
2018-01-22T08:52:11.022Z,11.54
2018-01-22T08:53:19.899Z,12.68
2018-01-22T08:54:28.727Z,12.77
2018-01-22T08:55:37.833Z,12.49
2018-01-22T08:56:46.658Z,12.21
2018-01-22T08:57:55.482Z,12.12
2018-01-22T08:59:04.307Z,12.49
2018-01-22T09:00:13.135Z,12.21
2018-01-22T09:01:22.016Z,11.73
2018-01-22T09:02:30.838Z,12.12
2018-01-22T09:03:39.666Z,12.21
2018-01-22T09:04:48.769Z,12.68
2018-01-22T09:05:57.874Z,12.68
2018-01-22T09:07:06.977Z,12.02
2018-01-22T09:08:15.803Z,12.21
2018-01-22T09:09:24.629Z,12.4
2018-01-22T09:10:34.003Z,12.49
2018-01-22T09:11:42.829Z,12.87
2018-01-22T09:12:51.704Z,12.87
2018-01-22T09:14:00.854Z,12.49
2018-01-22T09:15:09.960Z,11.92
2018-01-22T09:16:18.786Z,12.02
2018-01-22T09:17:27.612Z,13.53
2018-01-22T09:18:36.540Z,13.53
2018-01-22T09:19:45.365Z,12.96
2018-01-22T09:20:54.194Z,13.15
2018-01-22T09:22:03.022Z,12.96
2018-01-22T09:23:11.847Z,12.96
2018-01-22T09:24:20.875Z,12.59
2018-01-22T09:25:29.706Z,12.59
2018-01-22T09:26:38.538Z,12.21
2018-01-22T09:27:47.636Z,12.21
2018-01-22T09:28:56.463Z,12.59
2018-01-22T09:30:05.447Z,12.77
2018-01-22T09:31:14.270Z,12.87
2018-01-22T09:32:23.095Z,12.96
2018-01-22T09:33:31.925Z,13.06
2018-01-22T09:34:40.749Z,13.06
2018-01-22T09:35:49.676Z,12.96
2018-01-22T09:36:58.503Z,12.59
2018-01-22T09:38:07.329Z,12.68
2018-01-22T09:39:16.436Z,12.87
2018-01-22T09:40:25.262Z,12.87
2018-01-22T09:41:34.188Z,13.06
2018-01-22T09:42:43.015Z,13.53
2018-01-22T09:43:52.119Z,13.15
2018-01-22T09:45:00.948Z,12.96
2018-01-22T09:46:10.055Z,12.96
2018-01-22T09:47:19.134Z,13.91
2018-01-22T09:48:27.961Z,14.01
2018-01-22T09:49:36.790Z,13.82
2018-01-22T09:50:45.886Z,14.48
2018-01-22T09:51:54.985Z,14.01
2018-01-22T09:53:03.862Z,13.82
2018-01-22T09:54:13.300Z,14.01
2018-01-22T09:55:22.072Z,13.53
2018-01-22T09:56:30.903Z,13.15
2018-01-22T09:57:39.731Z,13.82
2018-01-22T09:58:48.656Z,13.63
2018-01-22T09:59:57.484Z,13.44
2018-01-22T10:01:06.312Z,14.01
2018-01-22T10:02:15.140Z,14.2
2018-01-22T10:03:23.969Z,13.91
2018-01-22T10:04:33.166Z,13.82
2018-01-22T10:05:42.269Z,13.53
2018-01-22T10:06:51.094Z,13.15
2018-01-22T10:07:59.921Z,13.34
2018-01-22T10:09:08.747Z,13.63
2018-01-22T10:10:17.776Z,13.63
2018-01-22T10:11:26.601Z,13.25
2018-01-22T10:12:35.425Z,13.63
2018-01-22T10:13:44.802Z,13.91
2018-01-22T10:14:53.629Z,14.1
2018-01-22T10:16:02.922Z,13.82
2018-01-22T10:17:11.745Z,13.91
2018-01-22T10:18:20.574Z,13.44
2018-01-22T10:19:29.399Z,13.63
2018-01-22T10:20:38.226Z,13.06
2018-01-22T10:21:47.154Z,13.15
2018-01-22T10:22:55.979Z,13.15
2018-01-22T10:24:04.805Z,13.82
2018-01-22T10:25:13.634Z,13.82
2018-01-22T10:26:22.735Z,14.01
2018-01-22T10:27:31.614Z,14.1
2018-01-22T10:28:40.442Z,14.2
2018-01-22T10:29:49.268Z,13.53
2018-01-22T10:30:58.095Z,13.44
2018-01-22T10:32:07.204Z,13.34
2018-01-22T10:33:16.433Z,13.15
2018-01-22T10:34:25.261Z,13.16
2018-01-22T10:35:34.089Z,13.25
2018-01-22T10:36:42.914Z,13.06
2018-01-22T10:37:51.743Z,13.35
2018-01-22T10:39:00.568Z,13.44
2018-01-22T10:40:09.396Z,13.82
2018-01-22T10:41:18.226Z,13.82
2018-01-22T10:42:27.051Z,13.44
2018-01-22T10:43:35.878Z,13.06
2018-01-22T10:44:44.705Z,13.15
2018-01-22T10:45:53.530Z,12.78
2018-01-22T10:47:02.359Z,13.73
2018-01-22T10:48:11.185Z,13.64
2018-01-22T10:49:20.102Z,13.92
2018-01-22T10:50:28.892Z,13.45
2018-01-22T10:51:37.722Z,13.07
2018-01-22T10:52:46.548Z,13.16
2018-01-22T10:53:55.383Z,13.54
2018-01-22T10:55:04.606Z,13.16
2018-01-22T10:56:13.433Z,13.35
2018-01-22T10:57:22.262Z,13.16
2018-01-22T10:58:31.089Z,13.92
2018-01-22T10:59:39.922Z,13.92
2018-01-22T11:00:49.150Z,14.01
2018-01-22T11:01:57.978Z,13.35
2018-01-22T11:03:06.806Z,13.54
2018-01-22T11:04:15.634Z,13.16
2018-01-22T11:05:24.463Z,13.26
2018-01-22T11:06:33.442Z,13.07
2018-01-22T11:07:42.272Z,13.16
2018-01-22T11:08:51.372Z,13.35
2018-01-22T11:10:00.475Z,13.73
2018-01-22T11:11:09.304Z,13.16
2018-01-22T11:12:18.456Z,12.97
2018-01-22T11:13:27.284Z,12.4
2018-01-22T11:14:36.114Z,13.16
2018-01-22T11:15:44.942Z,12.78
2018-01-22T11:16:53.770Z,12.69
2018-01-22T11:18:02.699Z,11.83
2018-01-22T11:19:11.528Z,12.12
2018-01-22T11:20:20.356Z,12.5
2018-01-22T11:21:29.185Z,13.16
2018-01-22T11:22:38.287Z,13.16
2018-01-22T11:23:47.114Z,12.88
2018-01-22T11:24:55.942Z,12.5
2018-01-22T11:26:04.771Z,12.69
2018-01-22T11:27:13.599Z,12.21
2018-01-22T11:28:22.430Z,12.21
2018-01-22T11:29:31.405Z,12.31
2018-01-22T11:30:40.236Z,12.31
2018-01-22T11:31:49.063Z,12.21
2018-01-22T11:32:57.891Z,11.46
2018-01-22T11:34:06.721Z,11.27
2018-01-22T11:35:15.649Z,10.98
2018-01-22T11:36:24.476Z,11.46
2018-01-22T11:37:33.305Z,11.27
2018-01-22T11:38:42.406Z,11.08
2018-01-22T11:39:51.234Z,11.27
2018-01-22T11:41:00.063Z,11.46
2018-01-22T11:42:08.891Z,11.46
2018-01-22T11:43:17.718Z,11.17
2018-01-22T11:44:26.796Z,11.46
2018-01-22T11:45:35.901Z,11.93
2018-01-22T11:46:44.782Z,11.93
2018-01-22T11:47:53.885Z,12.21
2018-01-22T11:49:02.987Z,11.36
2018-01-22T11:50:11.815Z,11.46
2018-01-22T11:51:20.643Z,11.46
2018-01-22T11:52:29.872Z,12.02
2018-01-22T11:53:38.701Z,11.46
2018-01-22T11:54:47.527Z,11.46
2018-01-22T11:55:56.358Z,11.55
2018-01-22T11:57:05.187Z,12.69
2018-01-22T11:58:14.067Z,12.4
2018-01-22T11:59:22.895Z,12.02
2018-01-22T12:00:31.725Z,13.07
2018-01-22T12:01:40.753Z,12.31
2018-01-22T12:02:49.853Z,12.12
2018-01-22T12:03:58.834Z,11.74
2018-01-22T12:05:07.661Z,12.51
2018-01-22T12:06:16.541Z,13.35
2018-01-22T12:07:25.331Z,13.26
2018-01-22T12:08:34.437Z,12.51
2018-01-22T12:09:43.270Z,12.7
2018-01-22T12:10:52.147Z,12.88
2018-01-22T12:12:01.009Z,12.79
2018-01-22T12:13:09.836Z,13.17
2018-01-22T12:14:18.739Z,12.88
2018-01-22T12:15:27.621Z,12.22
2018-01-22T12:16:36.750Z,12.7
2018-01-22T12:17:45.913Z,13.54
2018-01-22T12:18:55.031Z,13.07
2018-01-22T12:20:03.859Z,13.35
2018-01-22T12:21:12.858Z,13.92
2018-01-22T12:22:21.952Z,13.54
2018-01-22T12:23:31.073Z,13.17
2018-01-22T12:24:39.908Z,12.98
2018-01-22T12:25:48.739Z,12.88
2018-01-22T12:26:57.717Z,12.88
2018-01-22T12:28:06.913Z,12.32
2018-01-22T12:29:16.020Z,12.98
2018-01-22T12:30:24.848Z,13.26
2018-01-22T12:31:33.706Z,13.26
2018-01-22T12:32:43.168Z,13.45
2018-01-22T12:33:51.996Z,13.35
2018-01-22T12:35:00.827Z,13.17
2018-01-22T12:36:09.659Z,12.6
2018-01-22T12:37:18.489Z,13.92
2018-01-22T12:38:27.591Z,13.73
2018-01-22T12:39:36.420Z,13.35
2018-01-22T12:40:45.251Z,13.83
2018-01-22T12:41:54.104Z,13.26
2018-01-22T12:43:02.935Z,13.64
2018-01-22T12:44:11.964Z,14.69
2018-01-22T12:45:20.832Z,15.06
2018-01-22T12:46:29.691Z,14.69
2018-01-22T12:47:38.527Z,14.87
2018-01-22T12:48:47.449Z,14.02
2018-01-22T12:49:56.280Z,13.92
2018-01-22T12:51:05.108Z,14.31
2018-01-22T12:52:13.938Z,14.87
2018-01-22T12:53:22.767Z,14.69
2018-01-22T12:54:31.644Z,14.78
2018-01-22T12:55:40.574Z,14.78
2018-01-22T12:56:49.450Z,14.87
2018-01-22T12:57:58.328Z,14.31
2018-01-22T12:59:07.234Z,14.69
2018-01-22T13:00:16.166Z,14.59
2018-01-22T13:01:25.038Z,15.16
2018-01-22T13:02:33.874Z,15.63
2018-01-22T13:03:42.732Z,15.82
2018-01-22T13:04:51.616Z,16.96
2018-01-22T13:06:00.554Z,17.14
2018-01-22T13:07:09.833Z,17.33
2018-01-22T13:08:18.664Z,16.3
2018-01-22T13:09:27.768Z,16.49
2018-01-22T13:10:36.597Z,15.91
2018-01-22T13:11:45.426Z,15.72
2018-01-22T13:12:54.259Z,16.58
2018-01-22T13:14:03.629Z,16.58
2018-01-22T13:15:12.461Z,17.05
2018-01-22T13:16:21.569Z,17.81
2018-01-22T13:17:30.400Z,17.81
2018-01-22T13:18:39.278Z,17.71
2018-01-22T13:19:48.105Z,18
2018-01-22T13:20:56.934Z,17.81
2018-01-22T13:22:05.765Z,17.62
2018-01-22T13:23:14.594Z,17.14
2018-01-22T13:24:23.573Z,17.71
2018-01-22T13:25:32.404Z,17.52
2018-01-22T13:26:41.234Z,16.77
2018-01-22T13:27:50.063Z,17.43
2018-01-22T13:28:58.891Z,17.43
2018-01-22T13:30:08.020Z,17.52
2018-01-22T13:31:17.404Z,17.71
2018-01-22T13:32:26.236Z,17.43
2018-01-22T13:33:35.064Z,16.58
2018-01-22T13:34:43.893Z,17.24
2018-01-22T13:35:53.023Z,17.14
2018-01-22T13:37:01.852Z,17.52
2018-01-22T13:38:10.682Z,17.52
2018-01-22T13:39:19.511Z,17.43
2018-01-22T13:40:28.340Z,17.43
2018-01-22T13:41:37.420Z,17.24
2018-01-22T13:42:46.265Z,16.77
2018-01-22T13:43:55.097Z,16.49
2018-01-22T13:45:03.945Z,16.58
2018-01-22T13:46:12.758Z,17.14
2018-01-22T13:47:21.893Z,16.3
2018-01-22T13:48:30.718Z,16.77
2018-01-22T13:49:39.594Z,16.77
2018-01-22T13:50:48.652Z,16.58
2018-01-22T13:51:57.496Z,17.81
2018-01-22T13:53:06.696Z,18.38
2018-01-22T13:54:15.525Z,17.9
2018-01-22T13:55:24.354Z,17.9
2018-01-22T13:56:33.184Z,17.62
2018-01-22T13:57:42.018Z,17.06
2018-01-22T13:58:50.863Z,17.06
2018-01-22T13:59:59.704Z,16.78
2018-01-22T14:01:08.543Z,17.25
2018-01-22T14:02:17.711Z,17.91
2018-01-22T14:03:26.508Z,17.72
2018-01-22T14:04:35.747Z,18.2
2018-01-22T14:05:44.587Z,17.82
2018-01-22T14:06:53.425Z,18.01
2018-01-22T14:08:02.264Z,18.1
2018-01-22T14:09:11.107Z,17.63
2018-01-22T14:10:20.013Z,16.97
2018-01-22T14:11:29.192Z,18.48
2018-01-22T14:12:38.024Z,19.53
2018-01-22T14:13:46.865Z,19.15
2018-01-22T14:14:55.693Z,20.09
2018-01-22T14:16:04.574Z,20.28
2018-01-22T14:17:13.713Z,19.81
2018-01-22T14:18:22.566Z,19.43
2018-01-22T14:19:31.461Z,20
2018-01-22T14:20:40.320Z,19.24
2018-01-22T14:21:49.411Z,18.48
2018-01-22T14:22:58.968Z,17.91
2018-01-22T14:24:07.813Z,17.25
2018-01-22T14:25:16.725Z,18.01
2018-01-22T14:26:25.553Z,18.1
2018-01-22T14:27:34.721Z,17.16
2018-01-22T14:28:43.958Z,17.72
2018-01-22T14:29:52.902Z,18.58
2018-01-22T14:31:01.729Z,17.82
2018-01-22T14:32:10.564Z,17.72
2018-01-22T14:33:19.544Z,17.25
2018-01-22T14:34:28.375Z,17.06
2018-01-22T14:35:37.482Z,16.87
2018-01-22T14:36:46.311Z,16.68
2018-01-22T14:37:55.143Z,17.06
2018-01-22T14:39:04.181Z,16.78
2018-01-22T14:40:13.034Z,16.68
2018-01-22T14:41:21.865Z,16.68
2018-01-22T14:42:30.695Z,16.78
2018-01-22T14:43:39.525Z,16.78
2018-01-22T14:44:48.630Z,16.78
2018-01-22T14:45:57.541Z,16.02
2018-01-22T14:47:06.374Z,16.39
2018-01-22T14:48:15.204Z,16.58
2018-01-22T14:49:24.033Z,16.3